doostiha.ir alexa rank chart, doostiha.ir alexa rank daily changes

doostiha.ir alexa rank chart, doostiha.ir alexa rank daily changes

doostiha.ir
Actual rank:
432 467

RANK HISTORY

Date Rank Diff
2017/05/23 432 467 +26 084
2017/05/22 406 383 +2 367
2017/05/21 404 016 +12 317
2017/05/20 391 699 +3 817
2017/05/19 387 882 +11 033
2017/05/18 376 849 +73
2017/05/17 376 776 +8 956
2017/05/16 367 820 +970
2017/05/15 366 850 +17 443
2017/05/14 349 407 +1 713
2017/05/13 347 694 +17 235
2017/05/12 330 459 -6 833
2017/05/11 337 292 -463
2017/05/10 337 755 +5 691
2017/05/09 332 064 +318
2017/05/08 331 746 +6 243
2017/05/07 325 503 -9 217
2017/05/06 334 720 -3 752
2017/05/05 338 472 +6 990
2017/05/04 331 482 +24 508
2017/05/03 306 974 +14 453
2017/05/02 292 521 -2 937
2017/05/01 295 458 +13 457
2017/04/30 282 001 +1 291
2017/04/29 280 710 -4 561
2017/04/28 285 271 -5 595
2017/04/27 290 866 +5 496
2017/04/26 285 370 -8 366
2017/04/25 293 736 +13 520
2017/04/24 280 216 +3 504
2017/04/23 276 712 -8 009
2017/04/22 284 721 +10 979
2017/04/21 273 742 -739
2017/04/20 274 481 +3 891
2017/04/19 270 590 +4 171
2017/04/18 266 419 -932
2017/04/17 267 351 -3 121
2017/04/16 270 472 +1 933
2017/04/15 268 539 -5 989
2017/04/14 274 528 -527
2017/04/13 275 055 -7 681
2017/04/12 282 736 +7 494
2017/04/11 275 242 -1 950
2017/04/10 277 192 -983
2017/04/09 278 175 -1 336
2017/04/08 279 511 -2 848
2017/04/07 282 359 +5 098
2017/04/06 277 261 +4 627
2017/04/05 272 634 -5 711
2017/04/04 278 345 -13 548
2017/04/03 291 893 -5 209
2017/04/02 297 102 -12
2017/04/01 297 114 -5 076
2017/03/31 302 190 -10 010
2017/03/30 312 200 +633
2017/03/29 311 567 +4 975
2017/03/28 306 592 +8 002
2017/03/27 298 590 -778
2017/03/26 299 368 +8 672
2017/03/25 290 696 -16 504
2017/03/24 307 200

WIDGET FOR YOUR SITE

DOMAINS WITH THE NEAREST RANK

Domain Rank
ymkikaku.com 432 462
brodportal.hr 432 463
clktrcking.com 432 464
nexseed.net 432 465
promattex.com 432 466
doostiha.ir 432 467
vitazx.com 432 468
rawkins.com 432 469
wahlburgersrestaurant.com 432 470
lekhded.com 432 471
world-liquor-importers.co.jp 432 472

DOMAINS WITH THE NEAREST RANK BY TLD .ir

Domain Rank
uspace.ir 432 123
ghati-pati.ir 432 209
esys.ir 432 273
ava-soft.ir 432 304
chr724.ir 432 335
doostiha.ir 432 467
gabric.ir 432 622
dollarkadeh.ir 432 666
shop-power2.ir 432 685
systec.ir 432 701
merajairlines.ir 432 807